Flight Track Log - Related Links

Times and Time Zones

All times are in EST time to prevent confusion due to time zone crossing. See the ASQ5740 flight status page for this flight to view local times or setup timezone preferences in your user account.

Time Position Orientation Groundspeed Altitude Reporting Facility
EST Latitude Longitude Course Direction KTS MPH feet Rate Location/Type
Thu 01:07:22 PM 38.9167 -77.4333 233° Southwest 164 189 1,900  Level Potomac TRACON
Thu 01:08:22 PM 38.8500 -77.4333 180° South 242 278 3,600 2,400 Climbing Potomac TRACON
Thu 01:09:22 PM 38.7833 -77.4167 169° South 277 319 6,700 2,755 Climbing Potomac TRACON
Thu 01:10:00 PM 38.6545 -77.8297 226° Southwest  Level Estimated
Thu 01:11:00 PM 38.5811 -77.9217 226° Southwest  Level Estimated
Thu 01:11:01 PM 38.6589 -77.4686 198° South 279 321 10,900  Level Washington Center
Thu 01:11:59 PM 38.5753 -77.4983 196° South 298 343 11,900 1,513 Climbing Washington Center
Thu 01:12:00 PM 38.5076 -78.0135 233° Southwest  Level Estimated
Thu 01:13:00 PM 38.4808 -77.5358 197° South 330 380 13,900  Level Washington Center
Thu 01:14:00 PM 38.3903 -77.5836 202° Southwest 348 400 15,500 1,587 Climbing Washington Center
Thu 01:15:01 PM 38.3261 -77.6772 229° Southwest 348 400 17,100 1,388 Climbing Washington Center
Thu 01:16:01 PM 38.2619 -77.7758 230° Southwest 353 406 18,300 1,220 Climbing Washington Center
Thu 01:16:59 PM 38.2039 -77.8614 229° Southwest 359 413 19,500 1,220 Climbing Washington Center
Thu 01:17:59 PM 38.1394 -77.9600 230° Southwest 364 419 20,700 1,091 Climbing Washington Center
Thu 01:19:00 PM 38.0728 -78.0633 231° Southwest 374 430 21,700 1,033 Climbing Washington Center
Thu 01:20:01 PM 37.9994 -78.1717 229° Southwest 372 428 22,800 1,059 Climbing Washington Center
Thu 01:20:59 PM 37.9411 -78.2669 232° Southwest 372 428 23,800 610 Climbing Washington Center
Thu 01:21:59 PM 37.8681 -78.3669 227° Southwest 383 441 24,000 100 Climbing Washington Center
Thu 01:22:59 PM 37.7858 -78.4875 229° Southwest 402 463 24,000  Level Washington Center
Thu 01:24:00 PM 37.7125 -78.5922 229° Southwest 402 463 24,000  Level Washington Center
Thu 01:25:00 PM 37.6367 -78.6994 228° Southwest 402 463 24,000 446 Level Washington Center
Thu 01:26:01 PM 37.5631 -78.8039 228° Southwest 402 463 24,900 942 Climbing Washington Center
Thu 01:27:01 PM 37.4892 -78.9081 228° Southwest 402 463 25,900 1,000 Climbing Washington Center
Thu 01:28:01 PM 37.4242 -78.9994 228° Southwest 402 463 26,900 1,017 Climbing Washington Center
Thu 01:28:59 PM 37.3503 -79.1006 227° Southwest 402 463 27,900 559 Climbing Washington Center
Thu 01:29:59 PM 37.2742 -79.2014 227° Southwest 402 463 28,000 49 Climbing Washington Center
Thu 01:31:01 PM 37.2042 -79.3078 230° Southwest 402 463 28,000  Level Washington Center
Thu 01:32:01 PM 37.1319 -79.4164 230° Southwest 402 463 28,000  Level Washington Center
Thu 01:32:59 PM 37.0575 -79.5269 230° Southwest 408 470 28,000  Level Washington Center
Thu 01:34:00 PM 36.9739 -79.6503 230° Southwest 421 484 28,000  Level Washington Center
Thu 01:35:01 PM 36.8972 -79.7631 230° Southwest 421 484 28,000  Level Washington Center
Thu 01:36:01 PM 36.8222 -79.8731 230° Southwest 421 484 28,000  Level Washington Center
Thu 01:36:59 PM 36.7408 -79.9878 229° Southwest 427 491 28,000  Level Washington Center
Thu 01:38:30 PM 36.6247 -80.1589 230° Southwest 436 502 28,000  Level Atlanta Center
Thu 01:39:30 PM 36.5447 -80.2661 227° Southwest 436 502 28,000 -400 Level Atlanta Center
Thu 01:40:30 PM 36.4314 -80.3178 200° South 419 482 27,200 -900 Descending Atlanta Center
Thu 01:41:30 PM 36.3139 -80.3567 195° South 425 489 26,200 -1,000 Descending Atlanta Center
Thu 01:42:30 PM 36.2086 -80.3925 195° South 438 504 25,200 -950 Descending Atlanta Center
Thu 01:43:30 PM 36.0928 -80.4311 195° South 438 504 24,300 -950 Descending Atlanta Center
Thu 01:44:30 PM 35.9772 -80.4722 196° South 433 498 23,300 -1,000 Descending Atlanta Center
Thu 01:45:30 PM 35.8617 -80.5106 195° South 433 498 22,300 -1,100 Descending Atlanta Center
Thu 01:46:30 PM 35.7425 -80.5744 204° Southwest 428 493 21,100 -1,100 Descending Atlanta Center
Thu 01:47:30 PM 35.6767 -80.6922 235° Southwest 422 486 20,100 -1,200 Descending Atlanta Center
Thu 01:48:15 PM 35.6356 -80.7861 242° Southwest 417 480 19,000 -1,600 Descending Atlanta Center
Thu 01:48:30 PM 35.6133 -80.8100 221° Southwest 403 464 18,500 -1,475 Descending Atlanta Center
Thu 01:49:16 PM 35.5719 -80.9058 242° Southwest 387 445 17,500 1,500 Descending Atlanta Center
Thu 01:49:30 PM 35.5556 -80.9219 219° Southwest 403 464 20,000 -1,622 Climbing Atlanta Center
Thu 01:50:30 PM 35.5039 -81.0208 237° Southwest 403 464 15,500 -3,303 Descending Atlanta Center
Thu 01:51:19 PM 35.4564 -81.1269 241° Southwest 378 435 14,000 -1,600 Descending Atlanta Center
Thu 01:51:30 PM 35.4481 -81.1325 209° Southwest 398 458 13,900 -1,000 Descending Atlanta Center
Thu 01:52:25 PM 35.3944 -81.2464 240° Southwest 358 412 12,900 -1,100 Descending Atlanta Center
Thu 01:52:30 PM 35.3883 -81.2492 200° South 387 445 12,800 -1,108 Descending Atlanta Center
Thu 01:53:30 PM 35.3364 -81.3553 239° Southwest 382 440 11,700 -1,150 Descending Atlanta Center
Thu 01:54:30 PM 35.2822 -81.4564 237° Southwest 371 427 10,500 -800 Descending Atlanta Center
Thu 01:55:30 PM 35.2361 -81.5442 237° Southwest 347 399 10,100 -750 Descending Atlanta Center
Thu 01:56:30 PM 35.2000 -81.6267 242° Southwest 309 356 9,000 -550 Descending Atlanta Center
Thu 01:57:30 PM 35.1661 -81.7039 242° Southwest 278 320 9,000  Level Atlanta Center
Thu 01:58:30 PM 35.1342 -81.7836 244° Southwest 267 307 9,000 -400 Level Atlanta Center
Thu 01:59:30 PM 35.0981 -81.8633 241° Southwest 267 307 8,200 -1,550 Descending Atlanta Center
Thu 02:00:30 PM 35.0681 -81.9400 244° Southwest 262 302 5,900 -2,200 Descending Atlanta Center
Thu 02:01:30 PM 35.0339 -82.0094 239° Southwest 257 296 3,800 -1,050 Descending Atlanta Center
Thu 02:02:30 PM 35.0017 -82.0839 242° Southwest 257 296 3,800  Level Atlanta Center

Login

Don't have an account? Register now (free) for customized features, flight alerts, and more!